sensor_id;sensor_type;location;lat;lon;timestamp;P1;durP1;ratioP1;P2;durP2;ratioP2
18612;SDS011;9436;52.152;21.032;2023-02-01T00:00:32;6.50;;;5.90;;
18612;SDS011;9436;52.152;21.032;2023-02-01T00:02:59;6.00;;;5.50;;
18612;SDS011;9436;52.152;21.032;2023-02-01T00:05:26;5.93;;;5.33;;
18612;SDS011;9436;52.152;21.032;2023-02-01T00:07:53;6.13;;;5.53;;
18612;SDS011;9436;52.152;21.032;2023-02-01T00:10:21;6.23;;;5.63;;
18612;SDS011;9436;52.152;21.032;2023-02-01T00:12:49;6.10;;;5.10;;
18612;SDS011;9436;52.152;21.032;2023-02-01T00:15:16;5.40;;;4.90;;
18612;SDS011;9436;52.152;21.032;2023-02-01T00:17:44;6.00;;;5.40;;
18612;SDS011;9436;52.152;21.032;2023-02-01T00:20:11;6.90;;;5.80;;
18612;SDS011;9436;52.152;21.032;2023-02-01T00:22:38;5.60;;;4.77;;
18612;SDS011;9436;52.152;21.032;2023-02-01T00:25:06;6.43;;;5.40;;
18612;SDS011;9436;52.152;21.032;2023-02-01T00:27:33;5.73;;;4.83;;
18612;SDS011;9436;52.152;21.032;2023-02-01T00:30:02;6.27;;;4.70;;
18612;SDS011;9436;52.152;21.032;2023-02-01T00:32:29;4.83;;;4.33;;
18612;SDS011;9436;52.152;21.032;2023-02-01T00:34:57;5.73;;;4.10;;
18612;SDS011;9436;52.152;21.032;2023-02-01T00:37:24;4.20;;;3.80;;
18612;SDS011;9436;52.152;21.032;2023-02-01T00:39:51;4.43;;;3.90;;
18612;SDS011;9436;52.152;21.032;2023-02-01T00:42:20;4.40;;;4.00;;
18612;SDS011;9436;52.152;21.032;2023-02-01T00:44:47;4.70;;;4.00;;
18612;SDS011;9436;52.152;21.032;2023-02-01T00:47:16;4.50;;;4.10;;
18612;SDS011;9436;52.152;21.032;2023-02-01T00:49:44;4.10;;;3.70;;
18612;SDS011;9436;52.152;21.032;2023-02-01T00:52:11;4.73;;;4.17;;
18612;SDS011;9436;52.152;21.032;2023-02-01T00:54:38;4.57;;;3.37;;
18612;SDS011;9436;52.152;21.032;2023-02-01T00:57:06;4.33;;;3.90;;
18612;SDS011;9436;52.152;21.032;2023-02-01T00:59:33;4.23;;;3.70;;
18612;SDS011;9436;52.152;21.032;2023-02-01T01:02:00;5.47;;;3.50;;
18612;SDS011;9436;52.152;21.032;2023-02-01T01:04:28;5.70;;;3.87;;
18612;SDS011;9436;52.152;21.032;2023-02-01T01:06:55;4.67;;;3.23;;
18612;SDS011;9436;52.152;21.032;2023-02-01T01:09:22;4.90;;;2.77;;
18612;SDS011;9436;52.152;21.032;2023-02-01T01:11:49;4.03;;;2.40;;
18612;SDS011;9436;52.152;21.032;2023-02-01T01:14:17;3.37;;;2.17;;
18612;SDS011;9436;52.152;21.032;2023-02-01T01:16:44;7.17;;;1.80;;
18612;SDS011;9436;52.152;21.032;2023-02-01T01:19:11;3.37;;;2.00;;
18612;SDS011;9436;52.152;21.032;2023-02-01T01:21:40;3.70;;;1.70;;
18612;SDS011;9436;52.152;21.032;2023-02-01T01:24:07;3.23;;;1.60;;
18612;SDS011;9436;52.152;21.032;2023-02-01T01:26:34;3.30;;;1.93;;
18612;SDS011;9436;52.152;21.032;2023-02-01T01:29:01;4.63;;;2.00;;
18612;SDS011;9436;52.152;21.032;2023-02-01T01:31:28;2.63;;;1.70;;
18612;SDS011;9436;52.152;21.032;2023-02-01T01:33:56;4.67;;;1.63;;
18612;SDS011;9436;52.152;21.032;2023-02-01T01:36:25;4.27;;;1.47;;
18612;SDS011;9436;52.152;21.032;2023-02-01T01:38:55;4.70;;;1.80;;
18612;SDS011;9436;52.152;21.032;2023-02-01T01:41:23;4.93;;;1.87;;
18612;SDS011;9436;52.152;21.032;2023-02-01T01:43:53;3.03;;;1.83;;
18612;SDS011;9436;52.152;21.032;2023-02-01T01:46:22;3.43;;;1.80;;
18612;SDS011;9436;52.152;21.032;2023-02-01T01:48:52;3.77;;;2.30;;
18612;SDS011;9436;52.152;21.032;2023-02-01T01:51:26;4.37;;;2.10;;
18612;SDS011;9436;52.152;21.032;2023-02-01T01:53:59;4.33;;;1.90;;
18612;SDS011;9436;52.152;21.032;2023-02-01T01:56:30;3.97;;;2.00;;
18612;SDS011;9436;52.152;21.032;2023-02-01T01:59:00;4.07;;;2.10;;
18612;SDS011;9436;52.152;21.032;2023-02-01T02:01:27;7.50;;;2.33;;
18612;SDS011;9436;52.152;21.032;2023-02-01T02:03:54;4.93;;;2.23;;
18612;SDS011;9436;52.152;21.032;2023-02-01T02:06:26;4.53;;;2.23;;
18612;SDS011;9436;52.152;21.032;2023-02-01T02:09:01;5.60;;;2.40;;
18612;SDS011;9436;52.152;21.032;2023-02-01T02:11:29;6.40;;;2.70;;
18612;SDS011;9436;52.152;21.032;2023-02-01T02:13:56;7.40;;;2.70;;
18612;SDS011;9436;52.152;21.032;2023-02-01T02:16:34;6.13;;;3.10;;
18612;SDS011;9436;52.152;21.032;2023-02-01T02:19:17;7.43;;;2.27;;
18612;SDS011;9436;52.152;21.032;2023-02-01T02:27:49;8.77;;;2.70;;
18612;SDS011;9436;52.152;21.032;2023-02-01T02:30:41;7.03;;;2.50;;
18612;SDS011;9436;52.152;21.032;2023-02-01T02:36:29;7.77;;;2.80;;
18612;SDS011;9436;52.152;21.032;2023-02-01T02:39:04;7.00;;;3.03;;
18612;SDS011;9436;52.152;21.032;2023-02-01T02:41:37;8.13;;;3.00;;
18612;SDS011;9436;52.152;21.032;2023-02-01T02:44:32;4.90;;;2.80;;
18612;SDS011;9436;52.152;21.032;2023-02-01T02:47:25;7.93;;;3.27;;
18612;SDS011;9436;52.152;21.032;2023-02-01T02:50:04;8.93;;;3.17;;
18612;SDS011;9436;52.152;21.032;2023-02-01T02:52:56;7.67;;;3.03;;
18612;SDS011;9436;52.152;21.032;2023-02-01T02:55:44;7.40;;;2.87;;
18612;SDS011;9436;52.152;21.032;2023-02-01T02:58:12;5.73;;;2.90;;
18612;SDS011;9436;52.152;21.032;2023-02-01T03:00:57;11.27;;;3.30;;
18612;SDS011;9436;52.152;21.032;2023-02-01T03:03:42;6.30;;;2.33;;
18612;SDS011;9436;52.152;21.032;2023-02-01T03:06:30;8.07;;;2.70;;
18612;SDS011;9436;52.152;21.032;2023-02-01T03:08:59;8.67;;;2.90;;
18612;SDS011;9436;52.152;21.032;2023-02-01T03:11:30;7.50;;;2.80;;
18612;SDS011;9436;52.152;21.032;2023-02-01T03:14:13;7.43;;;2.93;;
18612;SDS011;9436;52.152;21.032;2023-02-01T03:16:44;7.93;;;2.30;;
18612;SDS011;9436;52.152;21.032;2023-02-01T03:19:14;7.60;;;2.77;;
18612;SDS011;9436;52.152;21.032;2023-02-01T03:21:48;6.60;;;2.50;;
18612;SDS011;9436;52.152;21.032;2023-02-01T03:24:20;9.03;;;2.50;;
18612;SDS011;9436;52.152;21.032;2023-02-01T03:27:00;10.73;;;2.47;;
18612;SDS011;9436;52.152;21.032;2023-02-01T03:29:32;8.67;;;2.23;;
18612;SDS011;9436;52.152;21.032;2023-02-01T03:32:04;6.07;;;2.50;;
18612;SDS011;9436;52.152;21.032;2023-02-01T03:34:31;9.70;;;2.70;;
18612;SDS011;9436;52.152;21.032;2023-02-01T03:37:01;5.13;;;2.47;;
18612;SDS011;9436;52.152;21.032;2023-02-01T03:39:34;6.33;;;2.20;;
18612;SDS011;9436;52.152;21.032;2023-02-01T03:42:04;9.27;;;2.70;;
18612;SDS011;9436;52.152;21.032;2023-02-01T03:44:38;5.13;;;2.40;;
18612;SDS011;9436;52.152;21.032;2023-02-01T03:47:08;10.33;;;2.90;;
18612;SDS011;9436;52.152;21.032;2023-02-01T03:49:40;6.13;;;2.30;;
18612;SDS011;9436;52.152;21.032;2023-02-01T03:52:13;5.77;;;2.40;;
18612;SDS011;9436;52.152;21.032;2023-02-01T03:54:41;10.27;;;2.90;;
18612;SDS011;9436;52.152;21.032;2023-02-01T03:57:11;8.83;;;2.80;;
18612;SDS011;9436;52.152;21.032;2023-02-01T03:59:40;8.57;;;2.63;;
18612;SDS011;9436;52.152;21.032;2023-02-01T04:02:07;7.20;;;2.67;;
18612;SDS011;9436;52.152;21.032;2023-02-01T04:04:35;10.93;;;2.70;;
18612;SDS011;9436;52.152;21.032;2023-02-01T04:07:02;10.07;;;2.60;;
18612;SDS011;9436;52.152;21.032;2023-02-01T04:09:31;6.33;;;2.50;;
18612;SDS011;9436;52.152;21.032;2023-02-01T04:11:58;6.90;;;2.90;;
18612;SDS011;9436;52.152;21.032;2023-02-01T04:14:25;7.47;;;2.50;;
18612;SDS011;9436;52.152;21.032;2023-02-01T04:16:52;10.52;;;3.30;;
18612;SDS011;9436;52.152;21.032;2023-02-01T04:19:19;7.77;;;2.90;;
18612;SDS011;9436;52.152;21.032;2023-02-01T04:21:46;8.57;;;2.60;;
18612;SDS011;9436;52.152;21.032;2023-02-01T04:24:13;10.27;;;2.93;;
18612;SDS011;9436;52.152;21.032;2023-02-01T04:26:42;9.40;;;3.23;;
18612;SDS011;9436;52.152;21.032;2023-02-01T04:29:09;9.33;;;2.43;;
18612;SDS011;9436;52.152;21.032;2023-02-01T04:31:36;9.87;;;2.60;;
18612;SDS011;9436;52.152;21.032;2023-02-01T04:34:03;10.13;;;2.67;;
18612;SDS011;9436;52.152;21.032;2023-02-01T04:36:30;6.80;;;2.53;;
18612;SDS011;9436;52.152;21.032;2023-02-01T04:38:57;10.57;;;2.80;;
18612;SDS011;9436;52.152;21.032;2023-02-01T04:41:24;10.87;;;2.90;;
18612;SDS011;9436;52.152;21.032;2023-02-01T04:43:53;8.07;;;2.70;;
18612;SDS011;9436;52.152;21.032;2023-02-01T04:46:20;4.77;;;2.27;;
18612;SDS011;9436;52.152;21.032;2023-02-01T04:48:47;8.00;;;2.60;;
18612;SDS011;9436;52.152;21.032;2023-02-01T04:51:14;6.67;;;2.70;;
18612;SDS011;9436;52.152;21.032;2023-02-01T04:53:43;10.23;;;2.50;;
18612;SDS011;9436;52.152;21.032;2023-02-01T04:56:10;8.87;;;2.90;;
18612;SDS011;9436;52.152;21.032;2023-02-01T04:58:37;8.17;;;2.70;;
18612;SDS011;9436;52.152;21.032;2023-02-01T05:01:05;7.87;;;2.87;;
18612;SDS011;9436;52.152;21.032;2023-02-01T05:03:33;9.97;;;2.90;;
18612;SDS011;9436;52.152;21.032;2023-02-01T05:06:01;9.70;;;3.10;;
18612;SDS011;9436;52.152;21.032;2023-02-01T05:08:29;9.27;;;2.83;;
18612;SDS011;9436;52.152;21.032;2023-02-01T05:10:56;12.03;;;3.07;;
18612;SDS011;9436;52.152;21.032;2023-02-01T05:13:24;10.80;;;2.70;;
18612;SDS011;9436;52.152;21.032;2023-02-01T05:16:09;8.37;;;2.63;;
18612;SDS011;9436;52.152;21.032;2023-02-01T05:18:36;9.07;;;2.40;;
18612;SDS011;9436;52.152;21.032;2023-02-01T05:21:04;7.83;;;2.63;;
18612;SDS011;9436;52.152;21.032;2023-02-01T05:23:31;9.13;;;2.57;;
18612;SDS011;9436;52.152;21.032;2023-02-01T05:26:18;10.37;;;2.60;;
18612;SDS011;9436;52.152;21.032;2023-02-01T05:28:45;10.07;;;3.00;;
18612;SDS011;9436;52.152;21.032;2023-02-01T05:31:13;12.03;;;2.80;;
18612;SDS011;9436;52.152;21.032;2023-02-01T05:33:40;10.93;;;2.80;;
18612;SDS011;9436;52.152;21.032;2023-02-01T05:36:08;10.93;;;2.63;;
18612;SDS011;9436;52.152;21.032;2023-02-01T05:38:35;10.83;;;2.57;;
18612;SDS011;9436;52.152;21.032;2023-02-01T05:41:02;9.43;;;2.87;;
18612;SDS011;9436;52.152;21.032;2023-02-01T05:43:29;12.73;;;2.90;;
18612;SDS011;9436;52.152;21.032;2023-02-01T05:45:56;8.10;;;2.47;;
18612;SDS011;9436;52.152;21.032;2023-02-01T05:48:24;9.63;;;2.97;;
18612;SDS011;9436;52.152;21.032;2023-02-01T05:50:51;8.53;;;2.83;;
18612;SDS011;9436;52.152;21.032;2023-02-01T05:53:19;10.80;;;2.67;;
18612;SDS011;9436;52.152;21.032;2023-02-01T05:55:46;7.17;;;2.40;;
18612;SDS011;9436;52.152;21.032;2023-02-01T05:58:13;9.07;;;2.70;;
18612;SDS011;9436;52.152;21.032;2023-02-01T06:00:40;12.20;;;3.27;;
18612;SDS011;9436;52.152;21.032;2023-02-01T06:03:07;10.83;;;2.80;;
18612;SDS011;9436;52.152;21.032;2023-02-01T06:05:36;11.33;;;2.80;;
18612;SDS011;9436;52.152;21.032;2023-02-01T06:08:03;7.93;;;2.80;;
18612;SDS011;9436;52.152;21.032;2023-02-01T06:10:32;9.70;;;2.77;;
18612;SDS011;9436;52.152;21.032;2023-02-01T06:12:59;12.60;;;3.00;;
18612;SDS011;9436;52.152;21.032;2023-02-01T06:15:28;10.30;;;3.07;;
18612;SDS011;9436;52.152;21.032;2023-02-01T06:17:55;6.53;;;2.50;;
18612;SDS011;9436;52.152;21.032;2023-02-01T06:20:22;9.23;;;2.80;;
18612;SDS011;9436;52.152;21.032;2023-02-01T06:22:50;9.67;;;3.00;;
18612;SDS011;9436;52.152;21.032;2023-02-01T06:25:18;8.43;;;2.77;;
18612;SDS011;9436;52.152;21.032;2023-02-01T06:27:46;9.20;;;2.87;;
18612;SDS011;9436;52.152;21.032;2023-02-01T06:30:13;10.13;;;3.03;;
18612;SDS011;9436;52.152;21.032;2023-02-01T06:32:40;7.93;;;2.80;;
18612;SDS011;9436;52.152;21.032;2023-02-01T06:35:08;9.17;;;2.97;;
18612;SDS011;9436;52.152;21.032;2023-02-01T06:37:41;7.93;;;2.60;;
18612;SDS011;9436;52.152;21.032;2023-02-01T06:40:10;8.17;;;2.83;;
18612;SDS011;9436;52.152;21.032;2023-02-01T06:42:38;11.33;;;2.97;;
18612;SDS011;9436;52.152;21.032;2023-02-01T06:45:05;8.63;;;2.75;;
18612;SDS011;9436;52.152;21.032;2023-02-01T06:47:33;10.53;;;2.60;;
18612;SDS011;9436;52.152;21.032;2023-02-01T06:50:00;9.30;;;2.80;;
18612;SDS011;9436;52.152;21.032;2023-02-01T06:52:28;6.33;;;2.43;;
18612;SDS011;9436;52.152;21.032;2023-02-01T06:54:56;10.10;;;3.07;;
18612;SDS011;9436;52.152;21.032;2023-02-01T06:57:24;9.67;;;2.50;;
18612;SDS011;9436;52.152;21.032;2023-02-01T06:59:55;6.97;;;2.53;;
18612;SDS011;9436;52.152;21.032;2023-02-01T07:02:23;8.90;;;2.80;;
18612;SDS011;9436;52.152;21.032;2023-02-01T07:04:50;8.17;;;2.63;;
18612;SDS011;9436;52.152;21.032;2023-02-01T07:07:17;9.40;;;2.90;;
18612;SDS011;9436;52.152;21.032;2023-02-01T07:09:47;9.43;;;2.70;;
18612;SDS011;9436;52.152;21.032;2023-02-01T07:12:15;8.77;;;2.43;;
18612;SDS011;9436;52.152;21.032;2023-02-01T07:14:43;8.40;;;2.57;;
18612;SDS011;9436;52.152;21.032;2023-02-01T07:17:10;10.00;;;3.67;;
18612;SDS011;9436;52.152;21.032;2023-02-01T07:19:37;8.17;;;2.93;;
18612;SDS011;9436;52.152;21.032;2023-02-01T07:22:04;8.10;;;2.67;;
18612;SDS011;9436;52.152;21.032;2023-02-01T07:24:33;11.00;;;3.03;;
18612;SDS011;9436;52.152;21.032;2023-02-01T07:27:00;8.00;;;2.50;;
18612;SDS011;9436;52.152;21.032;2023-02-01T07:29:27;9.10;;;2.97;;
18612;SDS011;9436;52.152;21.032;2023-02-01T07:31:55;10.27;;;3.07;;
18612;SDS011;9436;52.152;21.032;2023-02-01T07:34:23;10.30;;;3.00;;
18612;SDS011;9436;52.152;21.032;2023-02-01T07:36:50;9.93;;;2.47;;
18612;SDS011;9436;52.152;21.032;2023-02-01T07:39:17;9.20;;;3.00;;
18612;SDS011;9436;52.152;21.032;2023-02-01T07:41:45;7.27;;;2.60;;
18612;SDS011;9436;52.152;21.032;2023-02-01T07:44:12;9.80;;;2.30;;
18612;SDS011;9436;52.152;21.032;2023-02-01T07:46:39;11.37;;;3.13;;
18612;SDS011;9436;52.152;21.032;2023-02-01T07:49:09;10.33;;;2.53;;
18612;SDS011;9436;52.152;21.032;2023-02-01T07:51:38;9.60;;;3.30;;
18612;SDS011;9436;52.152;21.032;2023-02-01T07:54:06;6.90;;;2.77;;
18612;SDS011;9436;52.152;21.032;2023-02-01T07:56:33;7.80;;;3.10;;
18612;SDS011;9436;52.152;21.032;2023-02-01T07:59:00;10.00;;;3.37;;
18612;SDS011;9436;52.152;21.032;2023-02-01T08:01:28;10.20;;;3.00;;
18612;SDS011;9436;52.152;21.032;2023-02-01T08:03:54;10.60;;;3.28;;
18612;SDS011;9436;52.152;21.032;2023-02-01T08:06:25;11.17;;;2.97;;
18612;SDS011;9436;52.152;21.032;2023-02-01T08:08:53;10.20;;;3.37;;
18612;SDS011;9436;52.152;21.032;2023-02-01T08:11:21;10.97;;;2.90;;
18612;SDS011;9436;52.152;21.032;2023-02-01T08:13:48;9.30;;;2.90;;
18612;SDS011;9436;52.152;21.032;2023-02-01T08:16:17;11.83;;;3.20;;
18612;SDS011;9436;52.152;21.032;2023-02-01T08:18:45;9.83;;;2.87;;
18612;SDS011;9436;52.152;21.032;2023-02-01T08:21:13;9.47;;;2.87;;
18612;SDS011;9436;52.152;21.032;2023-02-01T08:23:43;9.17;;;2.80;;
18612;SDS011;9436;52.152;21.032;2023-02-01T08:26:11;11.20;;;3.67;;
18612;SDS011;9436;52.152;21.032;2023-02-01T08:28:40;10.63;;;3.40;;
18612;SDS011;9436;52.152;21.032;2023-02-01T08:31:10;11.07;;;3.10;;
18612;SDS011;9436;52.152;21.032;2023-02-01T08:33:40;10.53;;;3.00;;
18612;SDS011;9436;52.152;21.032;2023-02-01T08:36:08;9.23;;;3.20;;
18612;SDS011;9436;52.152;21.032;2023-02-01T08:38:37;8.47;;;2.87;;
18612;SDS011;9436;52.152;21.032;2023-02-01T08:41:07;7.77;;;3.00;;
18612;SDS011;9436;52.152;21.032;2023-02-01T08:43:35;12.53;;;3.20;;
18612;SDS011;9436;52.152;21.032;2023-02-01T08:46:03;9.23;;;2.90;;
18612;SDS011;9436;52.152;21.032;2023-02-01T08:48:30;7.17;;;2.50;;
18612;SDS011;9436;52.152;21.032;2023-02-01T08:51:00;8.40;;;3.23;;
18612;SDS011;9436;52.152;21.032;2023-02-01T08:53:28;12.47;;;3.10;;
18612;SDS011;9436;52.152;21.032;2023-02-01T08:55:55;10.93;;;2.80;;
18612;SDS011;9436;52.152;21.032;2023-02-01T08:58:24;10.73;;;3.37;;
18612;SDS011;9436;52.152;21.032;2023-02-01T09:00:51;8.97;;;3.00;;
18612;SDS011;9436;52.152;21.032;2023-02-01T09:03:18;9.10;;;3.00;;
18612;SDS011;9436;52.152;21.032;2023-02-01T09:05:45;11.00;;;2.90;;
18612;SDS011;9436;52.152;21.032;2023-02-01T09:08:13;9.63;;;2.80;;
18612;SDS011;9436;52.152;21.032;2023-02-01T09:10:40;8.60;;;3.30;;
18612;SDS011;9436;52.152;21.032;2023-02-01T09:13:07;7.80;;;3.23;;
18612;SDS011;9436;52.152;21.032;2023-02-01T09:15:36;8.10;;;3.30;;
18612;SDS011;9436;52.152;21.032;2023-02-01T09:18:03;7.80;;;2.87;;
18612;SDS011;9436;52.152;21.032;2023-02-01T09:20:30;8.80;;;2.70;;
18612;SDS011;9436;52.152;21.032;2023-02-01T09:22:57;9.63;;;3.00;;
18612;SDS011;9436;52.152;21.032;2023-02-01T09:25:25;11.87;;;3.63;;
18612;SDS011;9436;52.152;21.032;2023-02-01T09:27:53;7.97;;;2.90;;
18612;SDS011;9436;52.152;21.032;2023-02-01T09:30:20;11.47;;;3.10;;
18612;SDS011;9436;52.152;21.032;2023-02-01T09:32:49;10.50;;;3.30;;
18612;SDS011;9436;52.152;21.032;2023-02-01T09:35:16;8.73;;;3.10;;
18612;SDS011;9436;52.152;21.032;2023-02-01T09:37:43;11.73;;;3.07;;
18612;SDS011;9436;52.152;21.032;2023-02-01T09:40:12;10.27;;;3.27;;
18612;SDS011;9436;52.152;21.032;2023-02-01T09:42:45;10.87;;;3.60;;
18612;SDS011;9436;52.152;21.032;2023-02-01T09:45:20;8.43;;;3.30;;
18612;SDS011;9436;52.152;21.032;2023-02-01T09:47:53;12.47;;;3.60;;
18612;SDS011;9436;52.152;21.032;2023-02-01T09:50:26;10.73;;;3.47;;
18612;SDS011;9436;52.152;21.032;2023-02-01T09:53:00;11.90;;;3.30;;
18612;SDS011;9436;52.152;21.032;2023-02-01T09:55:31;10.10;;;3.70;;
18612;SDS011;9436;52.152;21.032;2023-02-01T09:58:04;10.80;;;4.00;;
18612;SDS011;9436;52.152;21.032;2023-02-01T10:00:35;10.33;;;3.50;;
18612;SDS011;9436;52.152;21.032;2023-02-01T10:03:07;13.33;;;3.67;;
18612;SDS011;9436;52.152;21.032;2023-02-01T10:05:49;9.73;;;3.17;;
18612;SDS011;9436;52.152;21.032;2023-02-01T10:08:26;12.10;;;3.13;;
18612;SDS011;9436;52.152;21.032;2023-02-01T10:11:04;8.93;;;3.30;;
18612;SDS011;9436;52.152;21.032;2023-02-01T10:13:45;8.47;;;3.47;;
18612;SDS011;9436;52.152;21.032;2023-02-01T10:16:24;9.83;;;3.60;;
18612;SDS011;9436;52.152;21.032;2023-02-01T10:19:04;7.57;;;3.03;;
18612;SDS011;9436;52.152;21.032;2023-02-01T10:21:49;9.97;;;3.43;;
18612;SDS011;9436;52.152;21.032;2023-02-01T10:24:29;7.73;;;3.10;;
18612;SDS011;9436;52.152;21.032;2023-02-01T10:27:08;9.73;;;3.07;;
18612;SDS011;9436;52.152;21.032;2023-02-01T10:29:41;12.63;;;3.73;;
18612;SDS011;9436;52.152;21.032;2023-02-01T10:32:14;12.43;;;3.40;;
18612;SDS011;9436;52.152;21.032;2023-02-01T10:34:46;10.73;;;3.50;;
18612;SDS011;9436;52.152;21.032;2023-02-01T10:37:20;14.40;;;3.50;;
18612;SDS011;9436;52.152;21.032;2023-02-01T10:39:52;9.43;;;3.50;;
18612;SDS011;9436;52.152;21.032;2023-02-01T10:42:23;9.83;;;3.30;;
18612;SDS011;9436;52.152;21.032;2023-02-01T10:44:52;9.10;;;3.30;;
18612;SDS011;9436;52.152;21.032;2023-02-01T10:47:21;13.53;;;3.83;;
18612;SDS011;9436;52.152;21.032;2023-02-01T10:49:52;10.00;;;3.73;;
18612;SDS011;9436;52.152;21.032;2023-02-01T10:52:31;9.37;;;3.53;;
18612;SDS011;9436;52.152;21.032;2023-02-01T10:58:06;10.83;;;4.00;;
18612;SDS011;9436;52.152;21.032;2023-02-01T11:00:41;10.27;;;3.57;;
18612;SDS011;9436;52.152;21.032;2023-02-01T11:06:11;9.43;;;3.93;;
18612;SDS011;9436;52.152;21.032;2023-02-01T11:08:45;11.17;;;3.83;;
18612;SDS011;9436;52.152;21.032;2023-02-01T11:11:14;8.40;;;3.47;;
18612;SDS011;9436;52.152;21.032;2023-02-01T11:13:42;8.03;;;3.70;;
18612;SDS011;9436;52.152;21.032;2023-02-01T11:16:11;10.77;;;3.83;;
18612;SDS011;9436;52.152;21.032;2023-02-01T11:18:41;10.27;;;4.20;;
18612;SDS011;9436;52.152;21.032;2023-02-01T11:21:09;9.73;;;4.30;;
18612;SDS011;9436;52.152;21.032;2023-02-01T11:23:42;10.90;;;3.67;;
18612;SDS011;9436;52.152;21.032;2023-02-01T11:26:12;9.23;;;3.80;;
18612;SDS011;9436;52.152;21.032;2023-02-01T11:28:48;10.37;;;3.70;;
18612;SDS011;9436;52.152;21.032;2023-02-01T11:31:19;10.70;;;4.13;;
18612;SDS011;9436;52.152;21.032;2023-02-01T11:33:48;9.77;;;3.60;;
18612;SDS011;9436;52.152;21.032;2023-02-01T11:36:20;8.97;;;3.53;;
18612;SDS011;9436;52.152;21.032;2023-02-01T11:38:53;7.37;;;3.43;;
18612;SDS011;9436;52.152;21.032;2023-02-01T11:41:33;8.87;;;3.23;;
18612;SDS011;9436;52.152;21.032;2023-02-01T11:44:01;8.80;;;3.43;;
18612;SDS011;9436;52.152;21.032;2023-02-01T11:46:46;13.93;;;3.90;;
18612;SDS011;9436;52.152;21.032;2023-02-01T11:49:18;11.20;;;3.43;;
18612;SDS011;9436;52.152;21.032;2023-02-01T11:51:52;12.30;;;3.87;;
18612;SDS011;9436;52.152;21.032;2023-02-01T11:54:38;10.47;;;3.30;;
18612;SDS011;9436;52.152;21.032;2023-02-01T11:57:38;11.77;;;4.07;;
18612;SDS011;9436;52.152;21.032;2023-02-01T12:00:28;9.73;;;3.53;;
18612;SDS011;9436;52.152;21.032;2023-02-01T12:03:07;10.57;;;3.83;;
18612;SDS011;9436;52.152;21.032;2023-02-01T12:06:08;9.97;;;4.03;;
18612;SDS011;9436;52.152;21.032;2023-02-01T12:08:52;12.87;;;4.70;;
18612;SDS011;9436;52.152;21.032;2023-02-01T12:11:33;10.97;;;4.20;;
18612;SDS011;9436;52.152;21.032;2023-02-01T12:14:30;15.70;;;4.50;;
18612;SDS011;9436;52.152;21.032;2023-02-01T12:20:12;9.87;;;4.17;;
18612;SDS011;9436;52.152;21.032;2023-02-01T12:22:52;12.90;;;3.90;;
18612;SDS011;9436;52.152;21.032;2023-02-01T12:25:34;15.40;;;4.60;;
18612;SDS011;9436;52.152;21.032;2023-02-01T12:28:25;14.33;;;4.43;;
18612;SDS011;9436;52.152;21.032;2023-02-01T12:33:55;13.43;;;4.60;;
18612;SDS011;9436;52.152;21.032;2023-02-01T12:36:46;13.00;;;4.37;;
18612;SDS011;9436;52.152;21.032;2023-02-01T12:39:21;14.20;;;4.30;;
18612;SDS011;9436;52.152;21.032;2023-02-01T12:41:53;11.43;;;4.37;;
18612;SDS011;9436;52.152;21.032;2023-02-01T12:44:34;15.80;;;4.33;;
18612;SDS011;9436;52.152;21.032;2023-02-01T12:47:08;13.43;;;4.30;;
18612;SDS011;9436;52.152;21.032;2023-02-01T12:49:44;12.80;;;5.20;;
18612;SDS011;9436;52.152;21.032;2023-02-01T12:52:16;15.13;;;4.67;;
18612;SDS011;9436;52.152;21.032;2023-02-01T12:54:48;15.93;;;5.00;;
18612;SDS011;9436;52.152;21.032;2023-02-01T12:57:25;16.47;;;4.90;;
18612;SDS011;9436;52.152;21.032;2023-02-01T12:59:59;14.80;;;4.80;;
18612;SDS011;9436;52.152;21.032;2023-02-01T13:02:35;13.40;;;4.87;;
18612;SDS011;9436;52.152;21.032;2023-02-01T13:05:11;11.83;;;5.00;;
18612;SDS011;9436;52.152;21.032;2023-02-01T13:07:43;15.67;;;4.90;;
18612;SDS011;9436;52.152;21.032;2023-02-01T13:10:16;13.77;;;4.60;;
18612;SDS011;9436;52.152;21.032;2023-02-01T13:12:53;11.90;;;4.53;;
18612;SDS011;9436;52.152;21.032;2023-02-01T13:15:26;15.07;;;4.97;;
18612;SDS011;9436;52.152;21.032;2023-02-01T13:17:57;12.87;;;4.70;;
18612;SDS011;9436;52.152;21.032;2023-02-01T13:20:29;12.90;;;4.93;;
18612;SDS011;9436;52.152;21.032;2023-02-01T13:22:59;15.40;;;5.53;;
18612;SDS011;9436;52.152;21.032;2023-02-01T13:25:33;15.63;;;5.17;;
18612;SDS011;9436;52.152;21.032;2023-02-01T13:28:14;15.73;;;5.43;;
18612;SDS011;9436;52.152;21.032;2023-02-01T13:30:54;12.60;;;4.67;;
18612;SDS011;9436;52.152;21.032;2023-02-01T13:33:44;13.37;;;4.80;;
18612;SDS011;9436;52.152;21.032;2023-02-01T13:36:26;15.40;;;4.97;;
18612;SDS011;9436;52.152;21.032;2023-02-01T13:39:24;11.70;;;5.10;;
18612;SDS011;9436;52.152;21.032;2023-02-01T13:42:12;11.93;;;5.10;;
18612;SDS011;9436;52.152;21.032;2023-02-01T13:44:45;11.30;;;4.70;;
18612;SDS011;9436;52.152;21.032;2023-02-01T13:47:18;10.10;;;4.97;;
18612;SDS011;9436;52.152;21.032;2023-02-01T13:49:50;11.53;;;4.67;;
18612;SDS011;9436;52.152;21.032;2023-02-01T13:52:26;8.87;;;4.20;;
18612;SDS011;9436;52.152;21.032;2023-02-01T13:58:00;9.47;;;4.40;;
18612;SDS011;9436;52.152;21.032;2023-02-01T14:00:31;12.40;;;4.50;;
18612;SDS011;9436;52.152;21.032;2023-02-01T14:03:19;8.47;;;3.87;;
18612;SDS011;9436;52.152;21.032;2023-02-01T14:05:58;9.30;;;4.37;;
18612;SDS011;9436;52.152;21.032;2023-02-01T14:08:41;12.90;;;4.43;;
18612;SDS011;9436;52.152;21.032;2023-02-01T14:11:37;9.90;;;5.00;;
18612;SDS011;9436;52.152;21.032;2023-02-01T14:26:03;9.20;;;4.20;;
18612;SDS011;9436;52.152;21.032;2023-02-01T14:28:32;9.73;;;4.17;;
18612;SDS011;9436;52.152;21.032;2023-02-01T14:31:13;7.97;;;4.30;;
18612;SDS011;9436;52.152;21.032;2023-02-01T14:33:56;9.80;;;4.00;;
18612;SDS011;9436;52.152;21.032;2023-02-01T14:36:25;11.57;;;4.30;;
18612;SDS011;9436;52.152;21.032;2023-02-01T14:39:04;9.50;;;4.37;;
18612;SDS011;9436;52.152;21.032;2023-02-01T14:41:44;10.33;;;4.70;;
18612;SDS011;9436;52.152;21.032;2023-02-01T14:44:14;8.77;;;4.20;;
18612;SDS011;9436;52.152;21.032;2023-02-01T14:50:03;8.67;;;3.67;;
18612;SDS011;9436;52.152;21.032;2023-02-01T14:55:46;9.27;;;3.93;;
18612;SDS011;9436;52.152;21.032;2023-02-01T14:58:24;6.07;;;3.70;;
18612;SDS011;9436;52.152;21.032;2023-02-01T15:01:04;6.47;;;4.03;;
18612;SDS011;9436;52.152;21.032;2023-02-01T15:03:46;7.87;;;4.30;;
18612;SDS011;9436;52.152;21.032;2023-02-01T15:06:25;7.93;;;3.43;;
18612;SDS011;9436;52.152;21.032;2023-02-01T15:08:56;6.53;;;3.90;;
18612;SDS011;9436;52.152;21.032;2023-02-01T15:11:25;8.50;;;4.17;;
18612;SDS011;9436;52.152;21.032;2023-02-01T15:13:53;8.23;;;3.93;;
18612;SDS011;9436;52.152;21.032;2023-02-01T15:16:24;7.77;;;3.93;;
18612;SDS011;9436;52.152;21.032;2023-02-01T15:19:06;6.07;;;3.60;;
18612;SDS011;9436;52.152;21.032;2023-02-01T15:21:43;6.97;;;3.87;;
18612;SDS011;9436;52.152;21.032;2023-02-01T15:24:17;10.27;;;4.53;;
18612;SDS011;9436;52.152;21.032;2023-02-01T15:26:49;9.33;;;3.97;;
18612;SDS011;9436;52.152;21.032;2023-02-01T15:29:17;8.13;;;4.63;;
18612;SDS011;9436;52.152;21.032;2023-02-01T15:31:46;8.93;;;4.23;;
18612;SDS011;9436;52.152;21.032;2023-02-01T15:34:15;7.57;;;4.00;;
18612;SDS011;9436;52.152;21.032;2023-02-01T15:36:44;8.53;;;3.70;;
18612;SDS011;9436;52.152;21.032;2023-02-01T15:39:16;9.20;;;4.13;;
18612;SDS011;9436;52.152;21.032;2023-02-01T15:41:48;7.17;;;4.60;;
18612;SDS011;9436;52.152;21.032;2023-02-01T15:44:23;6.67;;;4.00;;
18612;SDS011;9436;52.152;21.032;2023-02-01T15:46:57;8.00;;;4.30;;
18612;SDS011;9436;52.152;21.032;2023-02-01T15:49:26;8.57;;;4.30;;
18612;SDS011;9436;52.152;21.032;2023-02-01T15:51:56;8.50;;;4.57;;